sensor_id;sensor_type;location;lat;lon;timestamp;P1;P2;P0;N1;N25;N10
84107;NextPM;74203;50.730;1.626;2024-02-23T00:01:25;38.15;14.50;9.90;137.00;138.00;138.50
84107;NextPM;74203;50.730;1.626;2024-02-23T00:03:33;19.75;12.65;8.70;120.50;121.00;121.50
84107;NextPM;74203;50.730;1.626;2024-02-23T00:05:40;31.80;15.30;8.85;125.00;126.00;126.50
84107;NextPM;74203;50.730;1.626;2024-02-23T00:07:48;32.05;14.35;9.55;134.50;135.50;135.50
84107;NextPM;74203;50.730;1.626;2024-02-23T00:09:55;32.35;13.55;9.30;128.00;128.50;129.50
84107;NextPM;74203;50.730;1.626;2024-02-23T00:12:03;38.30;13.25;8.65;122.50;124.00;124.00
84107;NextPM;74203;50.730;1.626;2024-02-23T00:14:11;35.50;14.05;9.25;131.00;131.50;132.00
84107;NextPM;74203;50.730;1.626;2024-02-23T00:16:19;37.10;16.55;8.85;126.00;127.50;128.00
84107;NextPM;74203;50.730;1.626;2024-02-23T00:18:27;31.65;14.25;8.75;126.00;127.00;127.00
84107;NextPM;74203;50.730;1.626;2024-02-23T00:20:34;43.60;16.90;10.40;143.50;144.50;145.50
84107;NextPM;74203;50.730;1.626;2024-02-23T00:22:42;38.30;17.95;10.75;151.50;153.00;154.00
84107;NextPM;74203;50.730;1.626;2024-02-23T00:24:49;36.20;15.65;9.85;139.00;140.50;141.00
84107;NextPM;74203;50.730;1.626;2024-02-23T00:26:56;47.65;17.40;9.85;138.00;139.00;140.00
84107;NextPM;74203;50.730;1.626;2024-02-23T00:29:04;34.65;17.20;10.50;144.50;146.00;146.50
84107;NextPM;74203;50.730;1.626;2024-02-23T00:31:11;35.20;15.70;9.00;125.50;127.00;127.00
84107;NextPM;74203;50.730;1.626;2024-02-23T00:33:19;28.35;13.15;7.50;102.00;103.00;103.50
84107;NextPM;74203;50.730;1.626;2024-02-23T00:35:26;27.45;10.95;6.80;95.50;96.00;96.50
84107;NextPM;74203;50.730;1.626;2024-02-23T00:37:34;33.10;12.90;7.30;98.00;99.00;99.00
84107;NextPM;74203;50.730;1.626;2024-02-23T00:39:41;17.05;9.95;8.30;115.00;116.50;116.50
84107;NextPM;74203;50.730;1.626;2024-02-23T00:41:48;12.15;9.00;8.05;107.50;108.50;109.50
84107;NextPM;74203;50.730;1.626;2024-02-23T00:43:56;13.60;10.05;9.05;121.00;122.00;122.50
84107;NextPM;74203;50.730;1.626;2024-02-23T00:46:03;13.55;10.00;9.00;120.50;121.50;122.00
84107;NextPM;74203;50.730;1.626;2024-02-23T00:48:10;15.05;11.10;10.00;135.50;137.50;137.50
84107;NextPM;74203;50.730;1.626;2024-02-23T00:50:18;13.95;10.30;9.30;129.00;130.00;130.00
84107;NextPM;74203;50.730;1.626;2024-02-23T00:52:26;12.75;9.45;8.50;118.00;119.00;119.50
84107;NextPM;74203;50.730;1.626;2024-02-23T00:54:33;13.55;10.05;9.05;119.50;120.00;120.50
84107;NextPM;74203;50.730;1.626;2024-02-23T00:56:40;14.30;10.55;9.50;130.00;131.00;132.00
84107;NextPM;74203;50.730;1.626;2024-02-23T00:58:47;14.20;10.50;9.45;126.00;127.50;128.00
84107;NextPM;74203;50.730;1.626;2024-02-23T01:00:55;14.10;10.40;9.35;127.00;128.50;129.00
84107;NextPM;74203;50.730;1.626;2024-02-23T01:03:03;15.15;11.20;10.10;136.00;137.00;137.50
84107;NextPM;74203;50.730;1.626;2024-02-23T01:05:11;14.65;10.85;9.75;135.00;136.50;137.50
84107;NextPM;74203;50.730;1.626;2024-02-23T01:07:18;13.05;9.60;8.65;122.00;123.00;123.50
84107;NextPM;74203;50.730;1.626;2024-02-23T01:09:26;13.30;9.80;8.85;122.00;123.50;123.50
84107;NextPM;74203;50.730;1.626;2024-02-23T01:11:33;14.20;10.50;9.45;125.50;126.50;127.50
84107;NextPM;74203;50.730;1.626;2024-02-23T01:13:40;12.95;9.55;8.65;116.50;117.50;117.50
84107;NextPM;74203;50.730;1.626;2024-02-23T01:15:48;13.90;10.30;9.25;126.00;127.50;128.00
84107;NextPM;74203;50.730;1.626;2024-02-23T01:17:55;14.00;10.35;9.30;128.00;129.50;130.00
84107;NextPM;74203;50.730;1.626;2024-02-23T01:20:03;12.85;9.50;8.55;120.50;121.50;122.50
84107;NextPM;74203;50.730;1.626;2024-02-23T01:22:11;13.50;10.00;9.00;119.50;121.00;121.50
84107;NextPM;74203;50.730;1.626;2024-02-23T01:24:18;12.65;9.30;8.40;115.50;116.50;117.50
84107;NextPM;74203;50.730;1.626;2024-02-23T01:26:26;11.45;8.45;7.65;104.00;104.50;105.00
84107;NextPM;74203;50.730;1.626;2024-02-23T01:28:33;11.60;8.60;7.70;103.00;104.00;104.00
84107;NextPM;74203;50.730;1.626;2024-02-23T01:30:41;13.55;10.00;9.05;117.50;118.50;119.50
84107;NextPM;74203;50.730;1.626;2024-02-23T01:32:48;10.65;7.85;7.05;93.50;94.50;95.00
84107;NextPM;74203;50.730;1.626;2024-02-23T01:34:55;8.05;5.90;5.35;71.00;71.50;71.50
84107;NextPM;74203;50.730;1.626;2024-02-23T01:37:03;7.00;5.15;4.65;64.00;64.00;64.50
84107;NextPM;74203;50.730;1.626;2024-02-23T01:39:10;6.00;4.40;4.00;53.00;54.00;54.00
84107;NextPM;74203;50.730;1.626;2024-02-23T01:41:17;5.85;4.30;3.90;50.00;50.50;50.50
84107;NextPM;74203;50.730;1.626;2024-02-23T01:43:25;6.95;5.15;4.65;63.50;64.00;65.00
84107;NextPM;74203;50.730;1.626;2024-02-23T01:45:32;8.05;5.95;5.35;74.00;74.50;75.00
84107;NextPM;74203;50.730;1.626;2024-02-23T01:47:40;7.70;5.70;5.10;67.00;68.00;68.00
84107;NextPM;74203;50.730;1.626;2024-02-23T01:49:47;9.70;7.15;6.45;83.50;84.00;84.50
84107;NextPM;74203;50.730;1.626;2024-02-23T01:51:56;10.45;7.70;6.95;94.50;95.00;95.50
84107;NextPM;74203;50.730;1.626;2024-02-23T01:54:04;10.85;8.00;7.20;95.50;96.50;97.00
84107;NextPM;74203;50.730;1.626;2024-02-23T01:56:13;11.80;8.70;7.85;109.50;110.50;110.50
84107;NextPM;74203;50.730;1.626;2024-02-23T01:58:21;11.95;8.85;7.95;108.00;108.50;109.00
84107;NextPM;74203;50.730;1.626;2024-02-23T02:00:29;10.20;7.50;6.80;89.00;90.50;91.00
84107;NextPM;74203;50.730;1.626;2024-02-23T02:02:36;9.80;7.30;6.50;89.50;90.50;91.00
84107;NextPM;74203;50.730;1.626;2024-02-23T02:04:46;9.75;7.20;6.50;87.00;87.50;88.50
84107;NextPM;74203;50.730;1.626;2024-02-23T02:06:53;9.85;7.30;6.55;87.50;88.00;88.50
84107;NextPM;74203;50.730;1.626;2024-02-23T02:09:02;9.85;7.30;6.55;89.50;90.00;90.50
84107;NextPM;74203;50.730;1.626;2024-02-23T02:11:10;8.85;6.55;5.90;80.00;81.00;81.00
84107;NextPM;74203;50.730;1.626;2024-02-23T02:13:17;7.70;5.70;5.10;70.00;70.50;71.00
84107;NextPM;74203;50.730;1.626;2024-02-23T02:15:24;7.60;5.65;5.05;70.00;70.50;70.50
84107;NextPM;74203;50.730;1.626;2024-02-23T02:17:32;7.75;5.65;5.10;69.50;70.00;70.50
84107;NextPM;74203;50.730;1.626;2024-02-23T02:19:44;9.35;6.90;6.20;82.50;83.00;83.00
84107;NextPM;74203;50.730;1.626;2024-02-23T02:21:53;8.15;6.00;5.45;76.00;77.00;77.00
84107;NextPM;74203;50.730;1.626;2024-02-23T02:24:01;8.50;6.25;5.60;78.50;79.50;79.50
84107;NextPM;74203;50.730;1.626;2024-02-23T02:26:09;7.70;5.65;5.10;71.00;71.50;72.00
84107;NextPM;74203;50.730;1.626;2024-02-23T02:28:16;7.20;5.35;4.80;63.00;64.00;64.00
84107;NextPM;74203;50.730;1.626;2024-02-23T02:30:23;7.45;5.45;4.95;68.00;68.00;68.50
84107;NextPM;74203;50.730;1.626;2024-02-23T02:32:31;7.55;5.55;5.00;66.00;67.00;67.50
84107;NextPM;74203;50.730;1.626;2024-02-23T02:34:38;8.05;6.00;5.35;71.50;72.00;72.00
84107;NextPM;74203;50.730;1.626;2024-02-23T02:36:46;8.20;6.05;5.45;76.50;77.00;78.00
84107;NextPM;74203;50.730;1.626;2024-02-23T02:38:53;8.30;6.15;5.55;77.00;77.50;78.00
84107;NextPM;74203;50.730;1.626;2024-02-23T02:41:00;9.65;7.10;6.45;87.50;88.00;88.50
84107;NextPM;74203;50.730;1.626;2024-02-23T02:43:09;10.70;7.90;7.10;97.50;98.50;99.00
84107;NextPM;74203;50.730;1.626;2024-02-23T02:45:16;10.45;7.75;7.00;95.50;97.00;97.00
84107;NextPM;74203;50.730;1.626;2024-02-23T02:47:23;11.10;8.20;7.40;100.00;101.00;101.00
84107;NextPM;74203;50.730;1.626;2024-02-23T02:49:30;10.45;7.75;7.00;95.00;96.00;96.00
84107;NextPM;74203;50.730;1.626;2024-02-23T02:51:38;10.30;7.60;6.85;89.00;89.50;90.00
84107;NextPM;74203;50.730;1.626;2024-02-23T02:53:45;9.20;6.80;6.10;86.50;87.50;88.00
84107;NextPM;74203;50.730;1.626;2024-02-23T02:55:52;9.85;7.30;6.55;85.50;86.50;86.50
84107;NextPM;74203;50.730;1.626;2024-02-23T02:58:00;10.05;7.45;6.70;89.50;89.50;90.50
84107;NextPM;74203;50.730;1.626;2024-02-23T03:00:09;10.55;7.80;7.05;97.00;97.50;98.50
84107;NextPM;74203;50.730;1.626;2024-02-23T03:02:17;8.25;6.05;5.50;75.50;75.50;76.50
84107;NextPM;74203;50.730;1.626;2024-02-23T03:04:25;8.75;6.45;5.85;80.50;81.50;81.50
84107;NextPM;74203;50.730;1.626;2024-02-23T03:06:32;8.45;6.25;5.60;81.00;82.00;82.00
84107;NextPM;74203;50.730;1.626;2024-02-23T03:08:41;9.60;7.10;6.40;85.50;86.00;86.50
84107;NextPM;74203;50.730;1.626;2024-02-23T03:10:48;10.85;8.05;7.25;95.50;96.50;97.00
84107;NextPM;74203;50.730;1.626;2024-02-23T03:12:56;9.55;7.05;6.35;86.50;87.50;87.50
84107;NextPM;74203;50.730;1.626;2024-02-23T03:15:03;9.55;7.05;6.35;86.50;87.50;87.50
84107;NextPM;74203;50.730;1.626;2024-02-23T03:17:12;10.55;7.75;7.05;97.00;97.50;98.00
84107;NextPM;74203;50.730;1.626;2024-02-23T03:19:19;10.25;7.60;6.80;94.50;95.50;95.50
84107;NextPM;74203;50.730;1.626;2024-02-23T03:21:27;11.70;8.65;7.80;101.00;101.50;102.00
84107;NextPM;74203;50.730;1.626;2024-02-23T03:23:34;10.95;8.10;7.30;100.50;101.50;102.00
84107;NextPM;74203;50.730;1.626;2024-02-23T03:25:42;10.65;7.90;7.10;97.00;98.00;98.50
84107;NextPM;74203;50.730;1.626;2024-02-23T03:27:49;11.20;8.25;7.45;105.00;106.50;107.00
84107;NextPM;74203;50.730;1.626;2024-02-23T03:29:56;11.00;8.15;7.35;103.00;103.50;104.50
84107;NextPM;74203;50.730;1.626;2024-02-23T03:32:04;12.95;9.55;8.60;118.50;119.50;119.50
84107;NextPM;74203;50.730;1.626;2024-02-23T03:34:13;11.85;8.80;7.90;105.00;105.50;105.50
84107;NextPM;74203;50.730;1.626;2024-02-23T03:36:20;12.05;8.85;8.00;109.00;110.00;110.00
84107;NextPM;74203;50.730;1.626;2024-02-23T03:38:28;13.05;9.65;8.65;116.50;117.50;118.00
84107;NextPM;74203;50.730;1.626;2024-02-23T03:40:35;12.60;9.30;8.35;114.50;115.50;115.50
84107;NextPM;74203;50.730;1.626;2024-02-23T03:42:42;12.35;9.15;8.20;111.00;112.00;112.50
84107;NextPM;74203;50.730;1.626;2024-02-23T03:44:50;11.00;8.10;7.30;99.00;99.50;100.00
84107;NextPM;74203;50.730;1.626;2024-02-23T03:46:57;10.75;7.90;7.10;95.50;96.00;96.50
84107;NextPM;74203;50.730;1.626;2024-02-23T03:49:04;10.95;8.10;7.25;103.00;103.50;104.00
84107;NextPM;74203;50.730;1.626;2024-02-23T03:51:12;10.85;8.05;7.20;103.50;103.50;104.50
84107;NextPM;74203;50.730;1.626;2024-02-23T03:53:19;10.80;8.00;7.20;99.00;99.50;100.00
84107;NextPM;74203;50.730;1.626;2024-02-23T03:55:27;11.50;8.50;7.65;102.00;103.00;103.50
84107;NextPM;74203;50.730;1.626;2024-02-23T03:57:34;11.55;8.50;7.65;102.00;103.00;103.00
84107;NextPM;74203;50.730;1.626;2024-02-23T03:59:41;10.50;7.75;7.00;97.00;97.50;98.50
84107;NextPM;74203;50.730;1.626;2024-02-23T04:01:59;13.15;9.70;8.75;118.50;119.50;119.50
84107;NextPM;74203;50.730;1.626;2024-02-23T04:04:06;11.75;8.70;7.85;103.50;104.50;105.00
84107;NextPM;74203;50.730;1.626;2024-02-23T04:06:13;11.95;8.80;7.95;110.00;111.00;111.00
84107;NextPM;74203;50.730;1.626;2024-02-23T04:08:21;13.05;9.65;8.65;117.00;117.50;118.50
84107;NextPM;74203;50.730;1.626;2024-02-23T04:10:28;12.05;8.90;8.00;109.50;110.00;111.00
84107;NextPM;74203;50.730;1.626;2024-02-23T04:12:36;12.30;9.10;8.20;111.50;112.00;112.50
84107;NextPM;74203;50.730;1.626;2024-02-23T04:14:43;12.15;9.00;8.10;106.50;107.50;108.00
84107;NextPM;74203;50.730;1.626;2024-02-23T04:16:50;11.50;8.50;7.65;103.00;104.00;104.00
84107;NextPM;74203;50.730;1.626;2024-02-23T04:18:58;12.10;8.95;8.05;112.50;113.50;113.50
84107;NextPM;74203;50.730;1.626;2024-02-23T04:21:06;13.05;9.60;8.70;116.00;117.00;117.50
84107;NextPM;74203;50.730;1.626;2024-02-23T04:23:13;12.15;9.00;8.10;109.00;110.00;111.00
84107;NextPM;74203;50.730;1.626;2024-02-23T04:25:20;11.90;8.80;7.90;106.00;107.50;107.50
84107;NextPM;74203;50.730;1.626;2024-02-23T04:27:28;11.35;8.40;7.55;104.00;104.50;105.50
84107;NextPM;74203;50.730;1.626;2024-02-23T04:29:35;11.05;8.15;7.35;100.00;100.50;101.00
84107;NextPM;74203;50.730;1.626;2024-02-23T04:31:42;11.20;8.25;7.45;100.00;100.50;101.00
84107;NextPM;74203;50.730;1.626;2024-02-23T04:33:50;8.60;6.35;5.75;76.00;77.00;77.00
84107;NextPM;74203;50.730;1.626;2024-02-23T04:35:57;8.20;6.05;5.45;77.00;78.00;78.00
84107;NextPM;74203;50.730;1.626;2024-02-23T04:38:04;10.70;7.90;7.10;97.50;98.50;99.00
84107;NextPM;74203;50.730;1.626;2024-02-23T04:40:12;9.95;7.35;6.60;88.50;89.50;90.50
84107;NextPM;74203;50.730;1.626;2024-02-23T04:42:20;10.05;7.40;6.65;87.50;87.50;88.50
84107;NextPM;74203;50.730;1.626;2024-02-23T04:44:27;10.70;7.90;7.10;98.00;99.00;99.50
84107;NextPM;74203;50.730;1.626;2024-02-23T04:46:34;11.00;8.10;7.30;96.00;97.00;97.00
84107;NextPM;74203;50.730;1.626;2024-02-23T04:48:41;10.75;7.90;7.15;100.00;100.50;101.00
84107;NextPM;74203;50.730;1.626;2024-02-23T04:50:49;11.50;8.55;7.65;101.50;102.00;102.50
84107;NextPM;74203;50.730;1.626;2024-02-23T04:52:56;12.20;9.00;8.15;106.00;107.00;107.50
84107;NextPM;74203;50.730;1.626;2024-02-23T04:55:04;11.65;8.65;7.75;107.00;108.00;108.50
84107;NextPM;74203;50.730;1.626;2024-02-23T04:57:12;12.45;9.20;8.30;114.00;115.00;116.00
84107;NextPM;74203;50.730;1.626;2024-02-23T04:59:19;12.70;9.35;8.45;115.00;116.00;116.50
84107;NextPM;74203;50.730;1.626;2024-02-23T05:01:26;11.25;8.35;7.50;105.00;106.00;107.00
84107;NextPM;74203;50.730;1.626;2024-02-23T05:03:39;10.50;7.75;7.00;98.00;99.00;99.00
84107;NextPM;74203;50.730;1.626;2024-02-23T05:05:46;11.15;8.25;7.40;102.50;104.00;104.50
84107;NextPM;74203;50.730;1.626;2024-02-23T05:07:54;7.95;5.85;5.30;74.50;75.50;76.00
84107;NextPM;74203;50.730;1.626;2024-02-23T05:10:01;7.80;5.75;5.20;66.50;66.50;67.50
84107;NextPM;74203;50.730;1.626;2024-02-23T05:12:10;7.50;5.55;5.00;65.00;66.00;66.00
84107;NextPM;74203;50.730;1.626;2024-02-23T05:14:17;6.45;4.75;4.30;59.00;59.50;59.50
84107;NextPM;74203;50.730;1.626;2024-02-23T05:16:24;7.10;5.30;4.70;62.00;62.50;62.50
84107;NextPM;74203;50.730;1.626;2024-02-23T05:18:32;8.55;6.30;5.70;74.50;75.00;76.00
84107;NextPM;74203;50.730;1.626;2024-02-23T05:20:39;7.00;5.15;4.60;64.00;65.00;65.50
84107;NextPM;74203;50.730;1.626;2024-02-23T05:22:47;5.50;4.05;3.60;48.00;48.50;49.00
84107;NextPM;74203;50.730;1.626;2024-02-23T05:24:54;4.55;3.40;3.05;44.00;44.00;44.00
84107;NextPM;74203;50.730;1.626;2024-02-23T05:27:01;6.95;5.15;4.60;62.00;62.50;62.50
84107;NextPM;74203;50.730;1.626;2024-02-23T05:29:09;7.80;5.75;5.20;70.00;70.50;71.00
84107;NextPM;74203;50.730;1.626;2024-02-23T05:31:16;9.15;6.75;6.10;86.00;86.50;87.00
84107;NextPM;74203;50.730;1.626;2024-02-23T05:33:24;15.00;11.10;10.00;142.00;143.00;143.50
84107;NextPM;74203;50.730;1.626;2024-02-23T05:35:32;14.05;10.40;9.40;132.50;133.50;133.50
84107;NextPM;74203;50.730;1.626;2024-02-23T05:37:40;11.15;8.25;7.45;101.00;102.00;102.00
84107;NextPM;74203;50.730;1.626;2024-02-23T05:39:48;11.55;8.50;7.70;104.50;105.50;106.50
84107;NextPM;74203;50.730;1.626;2024-02-23T05:41:55;13.10;9.65;8.70;117.00;118.00;119.00
84107;NextPM;74203;50.730;1.626;2024-02-23T05:44:03;13.35;9.90;8.85;118.00;119.00;120.00
84107;NextPM;74203;50.730;1.626;2024-02-23T05:46:10;13.15;9.70;8.75;117.00;118.50;119.00
84107;NextPM;74203;50.730;1.626;2024-02-23T05:48:18;14.60;10.75;9.70;125.00;126.50;127.00
84107;NextPM;74203;50.730;1.626;2024-02-23T05:50:25;12.95;9.55;8.60;118.00;119.00;119.00
84107;NextPM;74203;50.730;1.626;2024-02-23T05:52:33;10.60;7.85;7.05;95.00;96.00;96.50
84107;NextPM;74203;50.730;1.626;2024-02-23T05:54:41;10.70;7.90;7.15;96.50;97.00;98.00
84107;NextPM;74203;50.730;1.626;2024-02-23T05:56:48;11.70;8.65;7.80;105.00;106.00;107.00
84107;NextPM;74203;50.730;1.626;2024-02-23T05:58:56;11.25;8.30;7.45;101.00;102.50;103.00
84107;NextPM;74203;50.730;1.626;2024-02-23T06:01:03;12.05;8.85;8.00;107.50;108.50;109.00
84107;NextPM;74203;50.730;1.626;2024-02-23T06:03:11;12.25;9.05;8.20;108.00;109.00;109.00
84107;NextPM;74203;50.730;1.626;2024-02-23T06:05:18;12.25;9.05;8.15;113.00;114.00;114.00
84107;NextPM;74203;50.730;1.626;2024-02-23T06:07:25;13.65;10.05;9.10;119.50;121.00;121.50
84107;NextPM;74203;50.730;1.626;2024-02-23T06:09:33;14.80;10.95;9.85;128.00;129.50;129.50
84107;NextPM;74203;50.730;1.626;2024-02-23T06:11:40;15.70;11.60;10.45;140.00;141.00;142.00
84107;NextPM;74203;50.730;1.626;2024-02-23T06:13:48;15.05;11.15;10.00;132.50;133.50;134.50
84107;NextPM;74203;50.730;1.626;2024-02-23T06:15:55;13.85;10.25;9.25;122.50;124.00;125.00
84107;NextPM;74203;50.730;1.626;2024-02-23T06:18:03;13.85;10.20;9.20;122.00;123.50;124.00
84107;NextPM;74203;50.730;1.626;2024-02-23T06:20:12;12.70;9.40;8.45;114.00;115.00;116.00
84107;NextPM;74203;50.730;1.626;2024-02-23T06:22:20;10.50;7.80;7.00;94.50;95.50;95.50
84107;NextPM;74203;50.730;1.626;2024-02-23T06:24:27;10.85;8.05;7.20;97.00;98.00;99.00
84107;NextPM;74203;50.730;1.626;2024-02-23T06:26:34;11.00;8.15;7.35;100.00;100.50;101.50
84107;NextPM;74203;50.730;1.626;2024-02-23T06:28:42;11.50;8.50;7.65;102.50;103.50;104.00
84107;NextPM;74203;50.730;1.626;2024-02-23T06:30:50;11.60;8.60;7.70;104.00;105.00;105.00
84107;NextPM;74203;50.730;1.626;2024-02-23T06:32:58;12.20;9.00;8.10;107.50;108.50;109.00
84107;NextPM;74203;50.730;1.626;2024-02-23T06:35:06;13.30;9.80;8.90;118.50;119.50;119.50
84107;NextPM;74203;50.730;1.626;2024-02-23T06:37:14;13.30;9.85;8.85;120.00;121.00;122.00
84107;NextPM;74203;50.730;1.626;2024-02-23T06:39:21;13.15;9.70;8.75;119.50;120.50;121.50
84107;NextPM;74203;50.730;1.626;2024-02-23T06:41:29;12.85;9.50;8.55;119.50;120.50;120.50
84107;NextPM;74203;50.730;1.626;2024-02-23T06:43:36;13.40;9.85;8.90;125.50;126.50;127.00
84107;NextPM;74203;50.730;1.626;2024-02-23T06:45:43;14.25;10.50;9.50;129.00;130.00;130.00
84107;NextPM;74203;50.730;1.626;2024-02-23T06:47:51;14.25;10.55;9.45;129.50;131.00;131.50
84107;NextPM;74203;50.730;1.626;2024-02-23T06:49:58;13.00;9.60;8.65;122.50;124.00;124.00
84107;NextPM;74203;50.730;1.626;2024-02-23T06:52:06;10.25;7.55;6.80;92.50;93.00;93.50
84107;NextPM;74203;50.730;1.626;2024-02-23T06:54:13;11.20;8.30;7.45;101.00;102.00;102.50
84107;NextPM;74203;50.730;1.626;2024-02-23T06:56:20;11.95;8.85;7.95;108.00;109.00;110.00
84107;NextPM;74203;50.730;1.626;2024-02-23T06:58:28;12.55;9.30;8.30;114.00;115.50;115.50
84107;NextPM;74203;50.730;1.626;2024-02-23T07:00:35;12.70;9.35;8.45;115.00;116.50;116.50
84107;NextPM;74203;50.730;1.626;2024-02-23T07:02:42;12.35;9.10;8.20;112.00;113.00;113.50
84107;NextPM;74203;50.730;1.626;2024-02-23T07:04:50;12.40;9.20;8.25;110.00;110.50;111.50
84107;NextPM;74203;50.730;1.626;2024-02-23T07:06:57;12.35;9.10;8.20;109.00;110.00;110.00
84107;NextPM;74203;50.730;1.626;2024-02-23T07:09:05;11.65;8.65;7.75;102.50;103.50;103.50
84107;NextPM;74203;50.730;1.626;2024-02-23T07:11:12;11.85;8.75;7.90;106.50;107.50;107.50
84107;NextPM;74203;50.730;1.626;2024-02-23T07:13:19;12.55;9.25;8.35;115.00;115.50;116.50
84107;NextPM;74203;50.730;1.626;2024-02-23T07:15:27;13.30;9.85;8.85;121.50;122.00;123.00
84107;NextPM;74203;50.730;1.626;2024-02-23T07:17:34;13.20;9.75;8.80;118.50;119.50;120.00
84107;NextPM;74203;50.730;1.626;2024-02-23T07:19:42;12.75;9.40;8.45;114.50;116.00;116.00
84107;NextPM;74203;50.730;1.626;2024-02-23T07:21:50;11.65;8.60;7.80;104.00;105.00;105.50
84107;NextPM;74203;50.730;1.626;2024-02-23T07:23:57;11.75;8.70;7.80;104.50;105.50;106.00
84107;NextPM;74203;50.730;1.626;2024-02-23T07:26:05;10.15;7.50;6.75;92.50;93.50;93.50
84107;NextPM;74203;50.730;1.626;2024-02-23T07:28:12;8.10;6.00;5.40;76.00;77.00;77.00
84107;NextPM;74203;50.730;1.626;2024-02-23T07:30:19;8.70;6.40;5.75;80.00;81.00;81.00
84107;NextPM;74203;50.730;1.626;2024-02-23T07:32:27;9.90;7.30;6.60;93.50;94.50;94.50
84107;NextPM;74203;50.730;1.626;2024-02-23T07:34:34;10.50;7.80;7.00;99.00;100.00;100.50
84107;NextPM;74203;50.730;1.626;2024-02-23T07:36:41;9.35;6.90;6.20;84.50;85.00;85.50
84107;NextPM;74203;50.730;1.626;2024-02-23T07:38:49;10.85;8.00;7.25;99.50;100.00;100.50
84107;NextPM;74203;50.730;1.626;2024-02-23T07:40:56;11.20;8.25;7.45;101.50;102.50;103.00
84107;NextPM;74203;50.730;1.626;2024-02-23T07:43:04;11.65;8.60;7.75;106.00;107.00;108.00
84107;NextPM;74203;50.730;1.626;2024-02-23T07:45:11;12.95;9.55;8.65;118.00;119.00;120.00
84107;NextPM;74203;50.730;1.626;2024-02-23T07:47:19;13.25;9.80;8.80;117.00;118.00;118.50
84107;NextPM;74203;50.730;1.626;2024-02-23T07:49:26;14.05;10.35;9.35;125.50;127.00;127.50
84107;NextPM;74203;50.730;1.626;2024-02-23T07:51:34;13.60;10.05;9.05;124.00;125.50;126.00
84107;NextPM;74203;50.730;1.626;2024-02-23T07:53:41;15.05;11.15;10.00;133.50;135.00;135.50
84107;NextPM;74203;50.730;1.626;2024-02-23T07:55:49;15.55;11.50;10.35;138.50;140.00;140.00
84107;NextPM;74203;50.730;1.626;2024-02-23T07:57:56;15.65;11.60;10.40;144.50;146.00;147.00
84107;NextPM;74203;50.730;1.626;2024-02-23T08:00:04;16.40;12.15;10.95;150.50;152.00;152.50
84107;NextPM;74203;50.730;1.626;2024-02-23T08:02:12;14.70;10.85;9.80;135.00;136.50;136.50
84107;NextPM;74203;50.730;1.626;2024-02-23T08:04:20;13.95;10.30;9.30;125.50;126.50;127.00
84107;NextPM;74203;50.730;1.626;2024-02-23T08:06:27;13.95;10.30;9.30;126.50;127.50;128.00
84107;NextPM;74203;50.730;1.626;2024-02-23T08:08:35;16.25;12.00;10.80;148.50;150.00;150.50
84107;NextPM;74203;50.730;1.626;2024-02-23T08:10:43;16.45;12.15;10.95;149.50;151.00;151.00
84107;NextPM;74203;50.730;1.626;2024-02-23T08:12:51;17.40;12.85;11.60;153.00;154.00;154.50
84107;NextPM;74203;50.730;1.626;2024-02-23T08:14:58;46.35;34.25;30.85;444.50;447.00;448.00
84107;NextPM;74203;50.730;1.626;2024-02-23T08:17:06;26.90;19.85;17.90;256.50;258.50;258.50
84107;NextPM;74203;50.730;1.626;2024-02-23T08:19:13;11.90;8.80;7.95;111.00;111.50;112.00
84107;NextPM;74203;50.730;1.626;2024-02-23T08:21:20;20.20;11.25;7.90;108.50;109.50;109.50
84107;NextPM;74203;50.730;1.626;2024-02-23T08:23:29;12.25;9.00;8.15;113.50;114.50;114.50
84107;NextPM;74203;50.730;1.626;2024-02-23T08:25:36;12.05;8.90;8.05;108.50;109.50;110.00
84107;NextPM;74203;50.730;1.626;2024-02-23T08:27:44;13.35;9.90;8.85;117.50;119.00;119.00
84107;NextPM;74203;50.730;1.626;2024-02-23T08:29:51;13.75;10.15;9.10;123.00;124.50;124.50
84107;NextPM;74203;50.730;1.626;2024-02-23T08:31:58;13.55;10.05;9.05;118.00;119.00;119.50
84107;NextPM;74203;50.730;1.626;2024-02-23T08:34:06;13.85;10.20;9.20;123.00;124.00;124.50
84107;NextPM;74203;50.730;1.626;2024-02-23T08:36:13;23.75;17.55;15.80;222.50;224.00;224.50
84107;NextPM;74203;50.730;1.626;2024-02-23T08:38:20;17.00;12.55;11.30;153.50;155.00;155.50
84107;NextPM;74203;50.730;1.626;2024-02-23T08:40:28;15.55;11.50;10.35;140.00;141.00;141.50
84107;NextPM;74203;50.730;1.626;2024-02-23T08:42:35;14.90;11.05;9.90;135.50;137.00;138.00
84107;NextPM;74203;50.730;1.626;2024-02-23T08:44:43;12.70;9.40;8.50;113.50;115.00;115.50
84107;NextPM;74203;50.730;1.626;2024-02-23T08:46:50;10.55;7.80;7.05;96.50;98.00;98.50
84107;NextPM;74203;50.730;1.626;2024-02-23T08:48:58;11.00;8.10;7.30;98.00;99.00;99.00
84107;NextPM;74203;50.730;1.626;2024-02-23T08:51:05;12.20;9.00;8.10;111.00;112.00;112.50
84107;NextPM;74203;50.730;1.626;2024-02-23T08:53:13;11.10;8.20;7.40;101.50;102.50;102.50
84107;NextPM;74203;50.730;1.626;2024-02-23T08:55:20;12.30;9.10;8.20;106.50;107.50;108.50
84107;NextPM;74203;50.730;1.626;2024-02-23T08:57:28;11.55;8.55;7.65;105.50;105.50;106.50
84107;NextPM;74203;50.730;1.626;2024-02-23T08:59:35;11.55;8.50;7.70;103.50;104.50;105.50
84107;NextPM;74203;50.730;1.626;2024-02-23T09:01:42;13.35;9.85;8.85;121.00;121.50;122.00
84107;NextPM;74203;50.730;1.626;2024-02-23T09:03:50;13.40;9.90;8.90;120.00;121.50;122.00
84107;NextPM;74203;50.730;1.626;2024-02-23T09:05:57;13.15;9.70;8.75;121.00;121.50;122.00
84107;NextPM;74203;50.730;1.626;2024-02-23T09:08:05;14.15;10.45;9.35;128.50;129.50;130.00
84107;NextPM;74203;50.730;1.626;2024-02-23T09:10:13;15.75;11.65;10.50;145.00;146.50;147.00
84107;NextPM;74203;50.730;1.626;2024-02-23T09:12:20;12.95;9.55;8.60;116.50;117.50;118.00
84107;NextPM;74203;50.730;1.626;2024-02-23T09:14:28;12.55;9.25;8.35;114.50;116.00;116.00
84107;NextPM;74203;50.730;1.626;2024-02-23T09:16:35;11.30;8.35;7.50;101.50;102.00;103.00
84107;NextPM;74203;50.730;1.626;2024-02-23T09:18:43;9.85;7.30;6.60;90.50;91.00;92.00
84107;NextPM;74203;50.730;1.626;2024-02-23T09:20:50;10.90;8.05;7.25;96.00;97.00;97.00
84107;NextPM;74203;50.730;1.626;2024-02-23T09:22:57;11.05;8.20;7.35;101.00;102.00;102.00
84107;NextPM;74203;50.730;1.626;2024-02-23T09:25:05;14.80;10.95;9.85;143.00;144.00;144.00
84107;NextPM;74203;50.730;1.626;2024-02-23T09:27:14;10.00;7.40;6.70;92.00;92.50;93.50
84107;NextPM;74203;50.730;1.626;2024-02-23T09:29:24;11.00;8.10;7.30;98.50;98.50;99.50
84107;NextPM;74203;50.730;1.626;2024-02-23T09:31:32;10.45;7.75;6.95;96.00;97.00;97.00
84107;NextPM;74203;50.730;1.626;2024-02-23T09:33:39;11.55;8.50;7.70;102.50;103.50;103.50
84107;NextPM;74203;50.730;1.626;2024-02-23T09:35:47;11.15;8.20;7.40;104.50;105.50;106.50